Time;durP1;ratioP1;P1;durP2;ratioP2;P2;SDS_P1;SDS_P2;PMS_P1;PMS_P2;Temp;Humidity;BMP_temperature;BMP_pressure;BME280_temperature;BME280_humidity;BME280_pressure;Samples;Min_cycle;Max_cycle;Signal;HPM_P1;HPM_P2
2024/04/18 00:00:26;;;;;;;8.20;3.30;;;;;;;;;;5449545;26;19994;-61
2024/04/18 00:02:52;;;;;;;6.57;3.15;;;;;;;;;;5434274;26;20484;-62
2024/04/18 00:05:19;;;;;;;5.63;2.72;;;;;;;;;;5444939;26;20398;-63
2024/04/18 00:07:44;;;;;;;7.53;3.00;;;;;;;;;;5424663;26;20035;-59
2024/04/18 00:10:10;;;;;;;6.45;3.10;;;;;;;;;;5427698;26;20418;-60
2024/04/18 00:12:36;;;;;;;7.25;3.58;;;;;;;;;;5425971;26;20011;-61
2024/04/18 00:15:01;;;;;;;9.05;3.83;;;;;;;;;;5421833;26;20011;-63
2024/04/18 00:17:27;;;;;;;8.98;4.00;;;;;;;;;;5443212;26;20074;-61
2024/04/18 00:19:52;;;;;;;7.07;3.28;;;;;;;;;;5425653;26;19999;-60
2024/04/18 00:22:18;;;;;;;8.20;3.72;;;;;;;;;;5448367;26;19999;-61
2024/04/18 00:24:44;;;;;;;10.20;3.75;;;;;;;;;;5413953;26;20140;-67
2024/04/18 00:27:09;;;;;;;9.30;4.80;;;;;;;;;;5442913;26;20011;-62
2024/04/18 00:29:35;;;;;;;9.13;4.30;;;;;;;;;;5419656;26;20006;-63
2024/04/18 00:32:01;;;;;;;7.57;3.80;;;;;;;;;;5414555;26;20011;-68
2024/04/18 00:34:26;;;;;;;8.55;3.63;;;;;;;;;;5414509;26;19991;-62
2024/04/18 00:36:52;;;;;;;9.00;3.70;;;;;;;;;;5430548;26;20014;-60
2024/04/18 00:39:17;;;;;;;7.53;3.80;;;;;;;;;;5430860;26;20067;-62
2024/04/18 00:41:43;;;;;;;7.03;3.58;;;;;;;;;;5426501;26;19995;-60
2024/04/18 00:44:10;;;;;;;8.75;4.10;;;;;;;;;;5439838;26;20016;-63
2024/04/18 00:46:35;;;;;;;7.72;3.67;;;;;;;;;;5435892;26;20012;-63
2024/04/18 00:49:01;;;;;;;8.13;3.53;;;;;;;;;;5426527;26;20011;-60
2024/04/18 00:51:26;;;;;;;12.38;3.72;;;;;;;;;;5442778;26;20006;-63
2024/04/18 00:53:52;;;;;;;7.18;3.50;;;;;;;;;;5426032;26;20006;-63
2024/04/18 00:56:18;;;;;;;10.60;3.80;;;;;;;;;;5432598;26;20435;-63
2024/04/18 00:58:43;;;;;;;8.43;3.70;;;;;;;;;;5417673;26;20067;-64
2024/04/18 01:01:10;;;;;;;8.13;3.38;;;;;;;;;;5413553;26;20012;-61
2024/04/18 01:03:35;;;;;;;7.68;3.70;;;;;;;;;;5413741;26;20012;-62
2024/04/18 01:06:01;;;;;;;7.43;3.50;;;;;;;;;;5441254;26;20052;-60
2024/04/18 01:08:26;;;;;;;8.18;3.53;;;;;;;;;;5443263;26;19998;-61
2024/04/18 01:10:52;;;;;;;7.80;3.53;;;;;;;;;;5443809;26;19999;-61
2024/04/18 01:13:17;;;;;;;6.35;3.25;;;;;;;;;;5431595;26;20002;-60
2024/04/18 01:15:43;;;;;;;7.47;3.25;;;;;;;;;;5444479;26;20447;-61
2024/04/18 01:18:09;;;;;;;8.43;4.00;;;;;;;;;;5423056;26;20495;-61
2024/04/18 01:20:34;;;;;;;6.72;3.50;;;;;;;;;;5426786;26;20011;-63
2024/04/18 01:23:00;;;;;;;7.55;3.50;;;;;;;;;;5455855;26;20067;-60
2024/04/18 01:25:25;;;;;;;7.65;3.63;;;;;;;;;;5446410;26;19999;-60
2024/04/18 01:27:51;;;;;;;9.25;4.10;;;;;;;;;;5439112;26;19995;-67
2024/04/18 01:30:16;;;;;;;8.70;3.65;;;;;;;;;;5439261;26;20006;-63
2024/04/18 01:32:42;;;;;;;8.18;3.63;;;;;;;;;;5415035;26;20002;-61
2024/04/18 01:35:07;;;;;;;7.03;3.28;;;;;;;;;;5436659;26;20007;-62
2024/04/18 01:37:33;;;;;;;7.82;2.85;;;;;;;;;;5428939;26;20339;-62
2024/04/18 01:39:58;;;;;;;8.68;3.42;;;;;;;;;;5414010;26;20011;-60
2024/04/18 01:42:24;;;;;;;8.85;3.65;;;;;;;;;;5420453;26;20065;-60
2024/04/18 01:44:51;;;;;;;7.18;3.60;;;;;;;;;;5418942;26;19992;-61
2024/04/18 01:47:17;;;;;;;7.63;3.38;;;;;;;;;;5421012;26;20011;-62
2024/04/18 01:49:42;;;;;;;8.88;4.00;;;;;;;;;;5426073;26;20350;-61
2024/04/18 01:52:08;;;;;;;8.20;3.63;;;;;;;;;;5440753;26;20339;-61
2024/04/18 01:54:33;;;;;;;8.13;3.65;;;;;;;;;;5440629;26;20466;-61
2024/04/18 01:56:59;;;;;;;7.50;3.78;;;;;;;;;;5427882;26;20412;-62
2024/04/18 01:59:25;;;;;;;10.02;4.00;;;;;;;;;;5441694;26;20409;-61
2024/04/18 02:01:50;;;;;;;9.88;3.72;;;;;;;;;;5429017;26;20721;-61
2024/04/18 02:04:19;;;;;;;6.72;3.50;;;;;;;;;;5438306;26;20447;-62
2024/04/18 02:06:44;;;;;;;7.55;3.70;;;;;;;;;;5436010;26;20006;-63
2024/04/18 02:09:10;;;;;;;7.53;3.53;;;;;;;;;;5445896;26;20005;-65
2024/04/18 02:11:44;;;;;;;7.70;3.72;;;;;;;;;;5435367;26;20011;-62
2024/04/18 02:14:11;;;;;;;9.10;3.70;;;;;;;;;;5434244;26;19992;-61
2024/04/18 02:16:36;;;;;;;;;;;;;;;;;;5436266;26;20009;-61
2024/04/18 02:19:02;;;;;;;7.30;3.33;;;;;;;;;;5416159;26;19937;-66
2024/04/18 02:21:28;;;;;;;8.70;3.65;;;;;;;;;;5416531;26;20314;-64
2024/04/18 02:23:53;;;;;;;8.15;3.78;;;;;;;;;;5426035;26;20067;-61
2024/04/18 02:26:19;;;;;;;7.88;3.53;;;;;;;;;;5441672;26;20003;-60
2024/04/18 02:28:44;;;;;;;7.78;3.45;;;;;;;;;;5424310;26;20015;-61
2024/04/18 02:31:10;;;;;;;8.20;4.07;;;;;;;;;;5430404;26;20010;-61
2024/04/18 02:33:35;;;;;;;7.65;3.67;;;;;;;;;;5419684;26;20056;-61
2024/04/18 02:36:01;;;;;;;8.93;3.85;;;;;;;;;;5448667;26;20322;-60
2024/04/18 02:38:28;;;;;;;7.95;3.50;;;;;;;;;;5417030;26;20459;-59
2024/04/18 02:41:06;;;;;;;7.95;3.92;;;;;;;;;;5415634;26;20012;-60
2024/04/18 02:43:32;;;;;;;7.95;3.80;;;;;;;;;;5429442;26;19995;-64
2024/04/18 02:45:57;;;;;;;7.50;3.30;;;;;;;;;;5433416;26;20005;-60
2024/04/18 02:48:23;;;;;;;9.02;3.50;;;;;;;;;;5450014;26;20015;-64
2024/04/18 02:50:48;;;;;;;7.50;3.80;;;;;;;;;;5415813;26;20408;-61
2024/04/18 02:53:14;;;;;;;8.90;4.30;;;;;;;;;;5437020;26;20436;-61
2024/04/18 02:55:40;;;;;;;7.30;3.40;;;;;;;;;;5445266;26;20690;-60
2024/04/18 02:58:05;;;;;;;7.57;3.60;;;;;;;;;;5435838;26;20468;-62
2024/04/18 03:00:31;;;;;;;9.90;4.07;;;;;;;;;;5443392;26;20002;-68
2024/04/18 03:02:56;;;;;;;7.68;3.60;;;;;;;;;;5472337;26;20006;-64
2024/04/18 03:05:24;;;;;;;7.55;3.78;;;;;;;;;;5437985;26;20010;-63
2024/04/18 03:07:49;;;;;;;10.90;4.47;;;;;;;;;;5443950;26;20466;-61
2024/04/18 03:10:15;;;;;;;8.10;3.97;;;;;;;;;;5437540;26;20000;-62
2024/04/18 03:12:41;;;;;;;7.05;3.70;;;;;;;;;;5421491;26;19999;-65
2024/04/18 03:15:07;;;;;;;7.63;3.58;;;;;;;;;;5439166;26;20358;-63
2024/04/18 03:17:32;;;;;;;7.85;3.55;;;;;;;;;;5446322;26;20010;-60
2024/04/18 03:19:58;;;;;;;8.38;4.07;;;;;;;;;;5438279;26;20048;-62
2024/04/18 03:22:23;;;;;;;7.43;3.22;;;;;;;;;;5442092;26;19995;-62
2024/04/18 03:24:49;;;;;;;7.00;3.40;;;;;;;;;;5457784;26;20011;-63
2024/04/18 03:27:14;;;;;;;7.93;4.07;;;;;;;;;;5466838;26;20001;-61
2024/04/18 03:29:40;;;;;;;9.68;3.58;;;;;;;;;;5428911;26;20011;-61
2024/04/18 03:32:05;;;;;;;7.88;3.80;;;;;;;;;;5413658;26;20007;-64
2024/04/18 03:34:31;;;;;;;8.77;3.90;;;;;;;;;;5422586;26;20010;-67
2024/04/18 03:36:57;;;;;;;9.18;4.00;;;;;;;;;;5441170;26;20075;-61
2024/04/18 03:39:22;;;;;;;8.63;4.35;;;;;;;;;;5451162;26;20420;-62
2024/04/18 03:41:49;;;;;;;9.50;4.20;;;;;;;;;;5451007;26;20011;-62
2024/04/18 03:44:14;;;;;;;7.25;3.78;;;;;;;;;;5448423;26;20323;-60
2024/04/18 03:46:40;;;;;;;9.63;3.97;;;;;;;;;;5450441;26;19994;-63
2024/04/18 03:49:07;;;;;;;10.02;4.60;;;;;;;;;;5450934;26;20007;-64
2024/04/18 03:51:32;;;;;;;11.85;4.32;;;;;;;;;;5449856;26;20002;-61
2024/04/18 03:53:58;;;;;;;9.18;4.30;;;;;;;;;;5433087;26;19992;-61
2024/04/18 03:56:24;;;;;;;9.25;4.38;;;;;;;;;;5449109;26;20005;-62
2024/04/18 03:58:49;;;;;;;9.15;4.35;;;;;;;;;;5445718;26;19995;-61
2024/04/18 04:01:15;;;;;;;12.52;4.93;;;;;;;;;;5412730;26;20003;-61
2024/04/18 04:03:40;;;;;;;9.48;4.30;;;;;;;;;;5428277;26;19999;-61
2024/04/18 04:06:06;;;;;;;9.38;4.15;;;;;;;;;;5450378;26;20015;-62
2024/04/18 04:08:31;;;;;;;7.80;3.83;;;;;;;;;;5450815;26;20006;-62
2024/04/18 04:10:57;;;;;;;8.98;4.18;;;;;;;;;;5420532;26;20011;-65
2024/04/18 04:13:22;;;;;;;9.45;4.00;;;;;;;;;;5411805;26;20089;-63
2024/04/18 04:15:48;;;;;;;10.32;4.43;;;;;;;;;;5428810;26;20007;-67
2024/04/18 04:18:14;;;;;;;9.18;4.40;;;;;;;;;;5429487;26;20008;-65
2024/04/18 04:20:40;;;;;;;9.70;4.30;;;;;;;;;;5431798;26;20001;-59
2024/04/18 04:23:05;;;;;;;11.18;4.53;;;;;;;;;;5434670;26;19991;-67
2024/04/18 04:25:31;;;;;;;10.23;4.38;;;;;;;;;;5425888;26;19991;-63
2024/04/18 04:27:56;;;;;;;11.50;5.03;;;;;;;;;;5428523;26;20006;-64
2024/04/18 04:30:22;;;;;;;9.68;3.85;;;;;;;;;;5437630;26;20079;-61
2024/04/18 04:32:47;;;;;;;9.10;4.07;;;;;;;;;;5436583;26;20003;-62
2024/04/18 04:35:13;;;;;;;9.35;3.92;;;;;;;;;;5429248;26;20079;-62
2024/04/18 04:37:38;;;;;;;7.72;3.95;;;;;;;;;;5437662;26;20003;-63
2024/04/18 04:40:05;;;;;;;9.43;4.35;;;;;;;;;;5433774;26;20433;-61
2024/04/18 04:42:33;;;;;;;7.90;3.78;;;;;;;;;;5430804;26;20028;-62
2024/04/18 04:44:58;;;;;;;8.57;4.18;;;;;;;;;;5434140;26;20013;-62
2024/04/18 04:47:24;;;;;;;10.15;4.22;;;;;;;;;;5427504;26;20008;-60
2024/04/18 04:49:49;;;;;;;9.68;4.03;;;;;;;;;;5422778;26;20018;-63
2024/04/18 04:52:15;;;;;;;9.20;4.10;;;;;;;;;;5433819;26;20084;-63
2024/04/18 04:54:44;;;;;;;7.47;3.58;;;;;;;;;;5423897;26;19998;-63
2024/04/18 04:57:09;;;;;;;8.00;3.72;;;;;;;;;;5432113;26;20707;-63
2024/04/18 04:59:35;;;;;;;11.40;4.97;;;;;;;;;;5429794;26;19999;-66
2024/04/18 05:02:01;;;;;;;9.57;4.90;;;;;;;;;;5424329;26;20014;-64
2024/04/18 05:04:26;;;;;;;8.88;4.30;;;;;;;;;;5426840;26;19998;-64
2024/04/18 05:06:52;;;;;;;9.60;4.50;;;;;;;;;;5431894;26;20010;-63
2024/04/18 05:09:19;;;;;;;9.52;5.05;;;;;;;;;;5427907;26;20358;-62
2024/04/18 05:11:45;;;;;;;8.80;4.30;;;;;;;;;;5428181;26;19991;-65
2024/04/18 05:14:10;;;;;;;11.18;4.88;;;;;;;;;;5428172;26;20004;-62
2024/04/18 05:16:36;;;;;;;11.48;4.80;;;;;;;;;;5428535;26;20067;-62
2024/04/18 05:19:02;;;;;;;11.18;5.40;;;;;;;;;;5427866;26;20068;-67
2024/04/18 05:21:27;;;;;;;10.07;5.53;;;;;;;;;;5416773;26;20016;-64
2024/04/18 05:23:53;;;;;;;11.93;6.18;;;;;;;;;;5441929;26;20074;-61
2024/04/18 05:26:18;;;;;;;12.40;5.88;;;;;;;;;;5464958;26;20048;-62
2024/04/18 05:31:29;;;;;;;11.20;6.18;;;;;;;;;;5452644;26;20048;-61
2024/04/18 05:33:54;;;;;;;10.90;5.88;;;;;;;;;;5450801;26;19994;-61
2024/04/18 05:36:20;;;;;;;12.50;6.30;;;;;;;;;;5453703;26;20006;-64
2024/04/18 05:38:45;;;;;;;12.90;6.28;;;;;;;;;;5446745;26;20006;-60
2024/04/18 05:41:11;;;;;;;12.20;6.35;;;;;;;;;;5427600;26;20007;-61
2024/04/18 05:43:36;;;;;;;10.45;5.38;;;;;;;;;;5427030;26;20014;-61
2024/04/18 05:46:02;;;;;;;10.98;5.82;;;;;;;;;;5452363;26;20070;-64
2024/04/18 05:48:27;;;;;;;10.45;5.47;;;;;;;;;;5451692;26;20199;-62
2024/04/18 05:50:53;;;;;;;10.60;5.40;;;;;;;;;;5422858;26;20075;-63
2024/04/18 05:53:18;;;;;;;9.93;5.15;;;;;;;;;;5437112;26;20000;-63
2024/04/18 05:55:44;;;;;;;13.40;5.70;;;;;;;;;;5445856;26;20004;-64
2024/04/18 05:58:09;;;;;;;10.80;5.70;;;;;;;;;;5444485;26;20080;-65
2024/04/18 06:00:35;;;;;;;9.88;5.25;;;;;;;;;;5439319;26;19999;-61
2024/04/18 06:03:01;;;;;;;10.10;4.82;;;;;;;;;;5440328;26;20016;-62
2024/04/18 06:05:27;;;;;;;8.48;4.45;;;;;;;;;;5444476;26;20455;-64
2024/04/18 06:07:52;;;;;;;9.23;4.50;;;;;;;;;;5445698;26;20035;-63
2024/04/18 06:10:18;;;;;;;12.95;5.00;;;;;;;;;;5434448;26;20003;-61
2024/04/18 06:12:43;;;;;;;9.35;5.00;;;;;;;;;;5416558;26;20011;-63
2024/04/18 06:15:09;;;;;;;10.10;5.05;;;;;;;;;;5445192;26;20062;-69
2024/04/18 06:17:36;;;;;;;9.13;5.40;;;;;;;;;;5439568;26;20007;-65
2024/04/18 06:20:02;;;;;;;9.30;4.35;;;;;;;;;;5431382;26;19995;-61
2024/04/18 06:22:30;;;;;;;8.35;4.32;;;;;;;;;;5432826;26;19999;-67
2024/04/18 06:24:56;;;;;;;7.97;3.63;;;;;;;;;;5432715;26;20009;-61
2024/04/18 06:27:21;;;;;;;7.60;3.38;;;;;;;;;;5452472;26;20007;-62
2024/04/18 06:29:47;;;;;;;8.98;3.75;;;;;;;;;;5441073;26;19995;-63
2024/04/18 06:32:13;;;;;;;6.65;3.35;;;;;;;;;;5449352;26;20409;-63
2024/04/18 06:34:38;;;;;;;6.68;3.50;;;;;;;;;;5437509;26;19995;-62
2024/04/18 06:37:06;;;;;;;8.93;3.45;;;;;;;;;;5435528;26;20010;-60
2024/04/18 06:39:31;;;;;;;8.60;3.60;;;;;;;;;;5448603;26;20014;-63
2024/04/18 06:41:57;;;;;;;8.18;4.18;;;;;;;;;;5439778;26;20018;-63
2024/04/18 06:44:22;;;;;;;9.77;5.53;;;;;;;;;;5447215;26;20009;-61
2024/04/18 06:46:48;;;;;;;9.43;4.68;;;;;;;;;;5437777;26;20100;-61
2024/04/18 06:49:13;;;;;;;9.52;4.47;;;;;;;;;;5435218;26;19995;-62
2024/04/18 06:51:39;;;;;;;9.60;4.90;;;;;;;;;;5445716;26;20434;-63
2024/04/18 06:54:04;;;;;;;11.07;4.82;;;;;;;;;;5452453;26;20405;-62
2024/04/18 06:56:30;;;;;;;9.80;4.38;;;;;;;;;;5430694;26;20409;-61
2024/04/18 06:58:55;;;;;;;7.93;4.10;;;;;;;;;;5422071;26;20511;-63
2024/04/18 07:01:21;;;;;;;9.52;4.70;;;;;;;;;;5445700;26;20005;-61
2024/04/18 07:03:47;;;;;;;8.05;4.32;;;;;;;;;;5460835;26;20002;-65
2024/04/18 07:06:12;;;;;;;9.18;4.60;;;;;;;;;;5445784;26;20076;-63
2024/04/18 07:08:38;;;;;;;9.43;5.00;;;;;;;;;;5439759;26;19995;-63
2024/04/18 07:11:03;;;;;;;8.80;4.43;;;;;;;;;;5454273;26;20007;-62
2024/04/18 07:13:29;;;;;;;9.52;4.82;;;;;;;;;;5451283;26;19999;-61
2024/04/18 07:16:00;;;;;;;8.77;4.72;;;;;;;;;;5449635;26;20010;-62
2024/04/18 07:18:26;;;;;;;10.93;6.35;;;;;;;;;;5451560;26;19998;-64
2024/04/18 07:20:51;;;;;;;10.35;5.35;;;;;;;;;;5451414;26;20010;-61
2024/04/18 07:23:17;;;;;;;10.45;5.35;;;;;;;;;;5451807;26;20070;-61
2024/04/18 07:25:42;;;;;;;10.80;5.22;;;;;;;;;;5448369;26;20003;-66
2024/04/18 07:28:08;;;;;;;9.82;5.20;;;;;;;;;;5455086;26;20007;-65
2024/04/18 07:30:33;;;;;;;10.77;4.85;;;;;;;;;;5454013;26;19987;-61
2024/04/18 07:32:59;;;;;;;9.23;4.80;;;;;;;;;;5452378;26;20002;-63
2024/04/18 07:35:24;;;;;;;11.40;4.85;;;;;;;;;;5451587;26;20036;-63
2024/04/18 07:37:53;;;;;;;8.10;4.60;;;;;;;;;;5449193;26;19999;-62
2024/04/18 07:40:21;;;;;;;10.00;5.05;;;;;;;;;;5450995;26;19999;-61
2024/04/18 07:42:49;;;;;;;8.10;4.25;;;;;;;;;;5451225;26;19998;-64
2024/04/18 07:45:14;;;;;;;10.30;5.05;;;;;;;;;;5447967;26;19998;-62
2024/04/18 07:47:40;;;;;;;7.50;4.07;;;;;;;;;;5444537;26;20007;-62
2024/04/18 07:50:06;;;;;;;10.05;4.78;;;;;;;;;;5443459;26;20400;-61
2024/04/18 07:52:31;;;;;;;8.05;4.78;;;;;;;;;;5449665;26;19998;-62
2024/04/18 07:54:57;;;;;;;8.52;4.38;;;;;;;;;;5448704;26;20011;-62
2024/04/18 07:57:22;;;;;;;8.52;4.00;;;;;;;;;;5450510;26;20006;-61
2024/04/18 07:59:48;;;;;;;9.20;5.00;;;;;;;;;;5451187;26;20005;-61
2024/04/18 08:02:13;;;;;;;9.80;4.97;;;;;;;;;;5451108;26;19999;-62
2024/04/18 08:04:39;;;;;;;8.65;4.20;;;;;;;;;;5445052;26;20011;-64
2024/04/18 08:07:04;;;;;;;8.60;4.68;;;;;;;;;;5450978;26;20005;-61
2024/04/18 08:09:30;;;;;;;9.95;4.70;;;;;;;;;;5449856;26;19998;-62
2024/04/18 08:11:55;;;;;;;8.32;4.65;;;;;;;;;;5451798;26;20545;-62
2024/04/18 08:14:21;;;;;;;7.57;4.25;;;;;;;;;;5450638;26;20425;-63
2024/04/18 08:16:46;;;;;;;7.93;4.18;;;;;;;;;;5454568;26;20529;-61
2024/04/18 08:19:12;;;;;;;7.70;4.03;;;;;;;;;;5450968;26;20503;-61
2024/04/18 08:21:37;;;;;;;8.98;4.90;;;;;;;;;;5446682;26;20001;-63
2024/04/18 08:24:03;;;;;;;9.63;5.18;;;;;;;;;;5422077;26;20073;-61
2024/04/18 08:26:29;;;;;;;10.07;4.85;;;;;;;;;;5436916;26;20040;-61
2024/04/18 08:28:54;;;;;;;10.35;5.50;;;;;;;;;;5427583;26;19995;-61
2024/04/18 08:31:20;;;;;;;9.23;4.90;;;;;;;;;;5434013;26;19994;-61
2024/04/18 08:33:46;;;;;;;12.00;5.10;;;;;;;;;;5425301;26;20045;-64
2024/04/18 08:36:12;;;;;;;8.30;4.35;;;;;;;;;;5441876;26;19999;-62
2024/04/18 08:38:37;;;;;;;9.65;4.63;;;;;;;;;;5446168;26;20067;-62
2024/04/18 08:41:06;;;;;;;9.95;4.90;;;;;;;;;;5440498;26;20015;-60
2024/04/18 08:43:32;;;;;;;8.43;4.72;;;;;;;;;;5449983;26;20018;-61
2024/04/18 08:45:57;;;;;;;8.02;4.78;;;;;;;;;;5449574;26;20006;-60
2024/04/18 08:48:26;;;;;;;8.27;4.65;;;;;;;;;;5436963;26;20013;-61
2024/04/18 08:50:51;;;;;;;8.60;3.90;;;;;;;;;;5449090;26;20742;-61
2024/04/18 08:53:17;;;;;;;7.57;4.00;;;;;;;;;;5449921;26;20052;-63
2024/04/18 08:55:47;;;;;;;8.77;4.30;;;;;;;;;;5449369;26;19990;-62
2024/04/18 08:58:12;;;;;;;7.43;3.90;;;;;;;;;;5446728;26;20064;-62
2024/04/18 09:00:42;;;;;;;8.43;3.53;;;;;;;;;;5446704;26;20347;-65
2024/04/18 09:03:08;;;;;;;6.75;3.20;;;;;;;;;;5450078;26;20014;-61
2024/04/18 09:05:33;;;;;;;7.25;3.10;;;;;;;;;;5450921;26;20010;-63
2024/04/18 09:07:59;;;;;;;6.15;3.05;;;;;;;;;;5426012;26;20602;-62
2024/04/18 09:10:24;;;;;;;7.97;2.70;;;;;;;;;;5450088;26;20433;-62
2024/04/18 09:12:53;;;;;;;4.80;2.15;;;;;;;;;;5449415;26;20002;-64
2024/04/18 09:15:18;;;;;;;5.25;1.80;;;;;;;;;;5441529;26;19999;-62
2024/04/18 09:17:44;;;;;;;5.32;2.25;;;;;;;;;;5417728;26;20443;-61
2024/04/18 09:20:10;;;;;;;4.15;1.70;;;;;;;;;;5444757;26;20007;-61
2024/04/18 09:22:35;;;;;;;4.90;2.13;;;;;;;;;;5453084;26;20006;-61
2024/04/18 09:25:01;;;;;;;4.47;1.70;;;;;;;;;;5453550;26;19994;-64
2024/04/18 09:27:26;;;;;;;4.65;1.50;;;;;;;;;;5453228;26;20067;-63
2024/04/18 09:29:52;;;;;;;5.82;1.90;;;;;;;;;;5449714;26;19998;-61
2024/04/18 09:32:17;;;;;;;4.28;1.45;;;;;;;;;;5452975;26;20006;-62
2024/04/18 09:34:47;;;;;;;4.07;1.50;;;;;;;;;;5452593;26;20343;-62
2024/04/18 09:37:15;;;;;;;4.05;1.55;;;;;;;;;;5452917;26;20042;-61
2024/04/18 09:39:42;;;;;;;4.63;1.58;;;;;;;;;;5450581;26;19995;-61
2024/04/18 09:42:12;;;;;;;5.38;1.77;;;;;;;;;;5452994;26;20013;-62
2024/04/18 09:44:42;;;;;;;4.72;1.50;;;;;;;;;;5452974;26;20013;-62
2024/04/18 09:47:08;;;;;;;3.70;1.50;;;;;;;;;;5453636;26;20366;-62
2024/04/18 09:49:34;;;;;;;2.90;0.90;;;;;;;;;;5451320;26;20056;-64
2024/04/18 09:52:00;;;;;;;3.00;1.10;;;;;;;;;;5451327;26;20009;-64
2024/04/18 09:54:25;;;;;;;5.13;1.30;;;;;;;;;;5453891;26;20003;-62
2024/04/18 09:56:52;;;;;;;2.70;1.02;;;;;;;;;;5452162;26;20071;-65
2024/04/18 09:59:17;;;;;;;2.42;0.90;;;;;;;;;;5434306;26;20003;-64
2024/04/18 10:01:43;;;;;;;2.97;0.73;;;;;;;;;;5432618;26;20009;-64
2024/04/18 10:04:09;;;;;;;1.80;0.75;;;;;;;;;;5453253;26;20459;-62
2024/04/18 10:06:36;;;;;;;2.88;1.00;;;;;;;;;;5453868;26;20007;-64
2024/04/18 10:09:05;;;;;;;2.55;0.80;;;;;;;;;;5421797;26;20000;-64
2024/04/18 10:11:31;;;;;;;2.35;0.80;;;;;;;;;;5448827;26;20053;-61
2024/04/18 10:14:01;;;;;;;2.95;0.93;;;;;;;;;;5435147;26;20003;-62
2024/04/18 10:16:26;;;;;;;2.78;0.98;;;;;;;;;;5416819;26;20460;-63
2024/04/18 10:18:52;;;;;;;2.97;1.23;;;;;;;;;;5415886;26;20016;-62
2024/04/18 10:21:20;;;;;;;3.00;1.10;;;;;;;;;;5429727;26;20011;-64
2024/04/18 10:23:49;;;;;;;3.80;1.10;;;;;;;;;;5450699;26;20342;-62
2024/04/18 10:26:14;;;;;;;3.13;1.08;;;;;;;;;;5452548;26;20812;-62
2024/04/18 10:28:40;;;;;;;3.13;1.00;;;;;;;;;;5452692;26;19995;-61
2024/04/18 10:31:06;;;;;;;2.75;0.90;;;;;;;;;;5443838;26;20000;-63
2024/04/18 10:33:34;;;;;;;3.58;1.20;;;;;;;;;;5447961;26;20007;-64
2024/04/18 10:36:00;;;;;;;4.00;1.05;;;;;;;;;;5447550;26;20009;-64
2024/04/18 10:38:26;;;;;;;3.17;1.00;;;;;;;;;;5434724;26;20398;-61
2024/04/18 10:41:01;;;;;;;1.55;0.60;;;;;;;;;;5421525;26;19995;-61
2024/04/18 10:43:27;;;;;;;2.25;0.70;;;;;;;;;;5451505;26;20415;-63
2024/04/18 10:45:53;;;;;;;1.80;0.60;;;;;;;;;;5452198;26;20009;-63
2024/04/18 10:48:19;;;;;;;3.60;0.70;;;;;;;;;;5451779;26;20347;-61
2024/04/18 10:50:45;;;;;;;2.08;0.63;;;;;;;;;;5445969;26;19999;-62
2024/04/18 10:53:10;;;;;;;1.90;0.70;;;;;;;;;;5447008;26;20066;-64
2024/04/18 10:55:36;;;;;;;2.05;0.70;;;;;;;;;;5452195;26;19990;-64
2024/04/18 10:58:03;;;;;;;4.50;0.80;;;;;;;;;;5452230;26;19999;-60
2024/04/18 11:00:31;;;;;;;;;;;;;;;;;;5442697;26;20007;-63
2024/04/18 11:02:57;;;;;;;2.45;0.80;;;;;;;;;;5451872;26;19991;-62
2024/04/18 11:05:22;;;;;;;3.42;0.73;;;;;;;;;;5449741;26;19998;-64
2024/04/18 11:07:52;;;;;;;2.50;0.80;;;;;;;;;;5437733;26;20003;-62
2024/04/18 11:10:17;;;;;;;2.42;0.68;;;;;;;;;;5444794;26;19999;-62
2024/04/18 11:12:43;;;;;;;2.45;0.70;;;;;;;;;;5422489;26;20458;-62
2024/04/18 11:15:09;;;;;;;2.00;0.70;;;;;;;;;;5439875;26;20012;-65
2024/04/18 11:17:37;;;;;;;2.78;0.70;;;;;;;;;;5420428;26;20005;-61
2024/04/18 11:20:03;;;;;;;3.22;0.80;;;;;;;;;;5443673;26;20020;-63
2024/04/18 11:22:29;;;;;;;2.63;0.70;;;;;;;;;;5434252;26;20514;-61
2024/04/18 11:24:56;;;;;;;3.05;0.70;;;;;;;;;;5441978;26;19999;-68
2024/04/18 11:27:25;;;;;;;2.58;0.70;;;;;;;;;;5444943;26;19999;-62
2024/04/18 11:29:51;;;;;;;3.03;0.90;;;;;;;;;;5414661;26;19999;-61
2024/04/18 11:32:17;;;;;;;2.50;0.75;;;;;;;;;;5415455;26;20472;-64
2024/04/18 11:34:42;;;;;;;2.67;0.80;;;;;;;;;;5428557;26;19995;-62
2024/04/18 11:37:09;;;;;;;2.03;0.77;;;;;;;;;;5451123;26;20010;-61
2024/04/18 11:39:35;;;;;;;2.75;0.80;;;;;;;;;;5451233;26;19999;-63
2024/04/18 11:42:00;;;;;;;2.60;0.80;;;;;;;;;;5438284;26;20573;-62
2024/04/18 11:44:26;;;;;;;2.40;0.85;;;;;;;;;;5449323;26;20395;-63
2024/04/18 11:46:53;;;;;;;2.30;0.60;;;;;;;;;;5453670;26;20419;-62
2024/04/18 11:49:20;;;;;;;2.88;0.80;;;;;;;;;;5440367;26;20027;-62
2024/04/18 11:51:45;;;;;;;3.20;0.80;;;;;;;;;;5436995;26;20459;-63
2024/04/18 11:54:11;;;;;;;2.13;0.70;;;;;;;;;;5451145;26;19999;-65
2024/04/18 11:56:36;;;;;;;2.22;0.70;;;;;;;;;;5450674;26;20455;-62
2024/04/18 11:59:02;;;;;;;2.53;0.90;;;;;;;;;;5450942;26;20458;-65
2024/04/18 12:01:28;;;;;;;3.45;0.55;;;;;;;;;;5448488;26;20071;-61
2024/04/18 12:03:54;;;;;;;3.45;0.80;;;;;;;;;;5451397;26;19998;-64
2024/04/18 12:06:19;;;;;;;2.22;0.80;;;;;;;;;;5443672;26;20015;-61
2024/04/18 12:08:46;;;;;;;3.30;0.73;;;;;;;;;;5419230;26;20080;-62
2024/04/18 12:11:11;;;;;;;2.63;0.80;;;;;;;;;;5420292;26;20452;-62
2024/04/18 12:13:37;;;;;;;2.55;0.80;;;;;;;;;;5437022;26;20005;-62
2024/04/18 12:16:02;;;;;;;2.70;0.70;;;;;;;;;;5435815;26;20361;-62
2024/04/18 12:18:28;;;;;;;4.85;1.02;;;;;;;;;;5422799;26;20035;-64
2024/04/18 12:20:53;;;;;;;2.63;0.73;;;;;;;;;;5443022;26;20362;-64
2024/04/18 12:23:19;;;;;;;2.20;0.73;;;;;;;;;;5441596;26;20011;-63
2024/04/18 12:25:44;;;;;;;3.05;0.68;;;;;;;;;;5450097;26;20067;-63
2024/04/18 12:28:10;;;;;;;2.05;0.70;;;;;;;;;;5439620;26;20044;-66
2024/04/18 12:30:35;;;;;;;2.40;0.70;;;;;;;;;;5411671;26;20080;-63
2024/04/18 12:33:01;;;;;;;2.55;0.80;;;;;;;;;;5435301;26;19995;-62
2024/04/18 12:35:26;;;;;;;1.77;0.70;;;;;;;;;;5449888;26;20006;-62
2024/04/18 12:37:52;;;;;;;2.90;0.80;;;;;;;;;;5450812;26;20063;-61
2024/04/18 12:40:17;;;;;;;3.00;1.02;;;;;;;;;;5451627;26;19995;-62
2024/04/18 12:42:45;;;;;;;2.38;0.77;;;;;;;;;;5428475;26;19999;-61
2024/04/18 12:45:12;;;;;;;2.08;0.70;;;;;;;;;;5448991;26;20003;-62
2024/04/18 12:47:37;;;;;;;2.28;0.75;;;;;;;;;;5451764;26;20034;-62
2024/04/18 12:50:04;;;;;;;2.15;0.80;;;;;;;;;;5437173;26;20004;-63
2024/04/18 12:52:29;;;;;;;4.57;0.80;;;;;;;;;;5418714;26;20011;-62
2024/04/18 12:54:55;;;;;;;2.63;0.80;;;;;;;;;;5438418;26;20009;-63
2024/04/18 12:57:20;;;;;;;1.63;0.60;;;;;;;;;;5448065;26;20011;-62
2024/04/18 12:59:46;;;;;;;2.13;0.70;;;;;;;;;;5425019;26;19995;-64
2024/04/18 13:02:13;;;;;;;1.90;0.57;;;;;;;;;;5441253;26;20007;-61
2024/04/18 13:04:39;;;;;;;2.15;0.60;;;;;;;;;;5449592;26;20017;-63
2024/04/18 13:07:05;;;;;;;2.35;0.60;;;;;;;;;;5449884;26;20001;-63
2024/04/18 13:09:33;;;;;;;2.65;0.90;;;;;;;;;;5449587;26;19999;-63
2024/04/18 13:11:59;;;;;;;3.20;0.70;;;;;;;;;;5446290;26;20027;-62
2024/04/18 13:14:25;;;;;;;1.60;0.50;;;;;;;;;;5446479;26;20006;-62
2024/04/18 13:16:53;;;;;;;5.75;0.85;;;;;;;;;;5449476;26;20058;-62
2024/04/18 13:19:18;;;;;;;2.78;0.73;;;;;;;;;;5442809;26;20023;-62
2024/04/18 13:21:44;;;;;;;2.42;0.80;;;;;;;;;;5422186;26;20060;-66
2024/04/18 13:24:10;;;;;;;2.67;0.70;;;;;;;;;;5456803;26;20003;-64
2024/04/18 13:26:35;;;;;;;2.50;0.60;;;;;;;;;;5445961;26;20048;-63
2024/04/18 13:29:01;;;;;;;3.05;0.77;;;;;;;;;;5419883;26;20058;-62
2024/04/18 13:31:27;;;;;;;2.20;0.65;;;;;;;;;;5414447;26;19995;-62
2024/04/18 13:33:53;;;;;;;2.67;0.70;;;;;;;;;;5421688;26;20002;-63
2024/04/18 13:36:19;;;;;;;2.30;0.75;;;;;;;;;;5446172;26;20015;-64
2024/04/18 13:38:44;;;;;;;2.88;0.80;;;;;;;;;;5449513;26;20010;-61
2024/04/18 13:41:10;;;;;;;3.78;0.80;;;;;;;;;;5446548;26;20010;-61
2024/04/18 13:43:36;;;;;;;2.00;0.68;;;;;;;;;;5420264;26;20007;-64
2024/04/18 13:46:01;;;;;;;1.98;0.60;;;;;;;;;;5422355;26;20072;-61
2024/04/18 13:48:27;;;;;;;2.33;0.80;;;;;;;;;;5418317;26;20062;-62
2024/04/18 13:50:54;;;;;;;2.83;0.90;;;;;;;;;;5444538;26;20010;-63
2024/04/18 13:53:19;;;;;;;3.35;0.82;;;;;;;;;;5432716;26;20000;-65
2024/04/18 13:55:48;;;;;;;2.03;0.73;;;;;;;;;;5446630;26;20074;-62
2024/04/18 13:58:14;;;;;;;2.58;0.90;;;;;;;;;;5435960;26;20006;-64
2024/04/18 14:00:39;;;;;;;2.10;0.63;;;;;;;;;;5416359;26;20401;-62
2024/04/18 14:03:05;;;;;;;2.25;0.70;;;;;;;;;;5427743;26;20391;-62
2024/04/18 14:05:30;;;;;;;2.22;0.70;;;;;;;;;;5452033;26;20423;-62
2024/04/18 14:07:56;;;;;;;3.10;0.73;;;;;;;;;;5452646;26;20459;-64
2024/04/18 14:10:22;;;;;;;2.80;0.80;;;;;;;;;;5437830;26;20067;-62
2024/04/18 14:12:47;;;;;;;;;;;;;;;;;;5434604;26;20003;-65
2024/04/18 14:15:35;;;;;;;2.03;0.63;;;;;;;;;;5416210;26;19925;-62
2024/04/18 14:20:49;;;;;;;2.47;0.80;;;;;;;;;;5447931;26;20530;-62
2024/04/18 14:23:15;;;;;;;2.90;0.90;;;;;;;;;;5450218;26;19998;-72
2024/04/18 14:25:40;;;;;;;2.35;0.73;;;;;;;;;;5451850;26;19995;-65
2024/04/18 14:28:06;;;;;;;4.43;1.08;;;;;;;;;;5452950;26;20006;-62
2024/04/18 14:30:31;;;;;;;3.05;0.80;;;;;;;;;;5426314;26;20072;-62
2024/04/18 14:32:57;;;;;;;2.15;0.80;;;;;;;;;;5433342;26;19991;-64
2024/04/18 14:35:22;;;;;;;2.72;0.80;;;;;;;;;;5446289;26;20071;-63
2024/04/18 14:37:48;;;;;;;7.20;1.25;;;;;;;;;;5440260;26;19991;-61
2024/04/18 14:40:13;;;;;;;2.58;0.80;;;;;;;;;;5451803;26;20002;-62